sensor_id;sensor_type;location;lat;lon;timestamp;pressure;altitude;pressure_sealevel;temperature;humidity
50302;BME280;36550;50.472;19.744;2022-09-09T00:02:25;97683.65;;;17.06;100.00
50302;BME280;36550;50.472;19.744;2022-09-09T00:05:19;97684.98;;;17.03;100.00
50302;BME280;36550;50.472;19.744;2022-09-09T00:08:07;97697.69;;;17.06;100.00
50302;BME280;36550;50.472;19.744;2022-09-09T00:10:58;97698.69;;;17.10;100.00
50302;BME280;36550;50.472;19.744;2022-09-09T00:13:46;97694.66;;;17.16;100.00
50302;BME280;36550;50.472;19.744;2022-09-09T00:16:35;97700.73;;;17.19;100.00
50302;BME280;36550;50.472;19.744;2022-09-09T00:19:30;97691.13;;;17.23;100.00
50302;BME280;36550;50.472;19.744;2022-09-09T00:22:21;97692.34;;;17.30;100.00
50302;BME280;36550;50.472;19.744;2022-09-09T00:26:04;97690.41;;;17.36;100.00
50302;BME280;36550;50.472;19.744;2022-09-09T00:28:19;97690.11;;;17.40;100.00
50302;BME280;36550;50.472;19.744;2022-09-09T00:31:15;97693.54;;;17.41;100.00
50302;BME280;36550;50.472;19.744;2022-09-09T00:34:11;97700.72;;;17.40;100.00
50302;BME280;36550;50.472;19.744;2022-09-09T00:36:58;97699.91;;;17.40;100.00
50302;BME280;36550;50.472;19.744;2022-09-09T00:39:46;97704.70;;;17.40;100.00
50302;BME280;36550;50.472;19.744;2022-09-09T00:42:39;97700.22;;;17.38;100.00
50302;BME280;36550;50.472;19.744;2022-09-09T00:58:16;97718.12;;;17.27;100.00
50302;BME280;36550;50.472;19.744;2022-09-09T01:01:13;97718.84;;;17.33;100.00
50302;BME280;36550;50.472;19.744;2022-09-09T01:03:56;97722.55;;;17.35;100.00
50302;BME280;36550;50.472;19.744;2022-09-09T01:06:45;97732.55;;;17.40;100.00
50302;BME280;36550;50.472;19.744;2022-09-09T01:09:54;97728.24;;;17.44;100.00
50302;BME280;36550;50.472;19.744;2022-09-09T01:12:41;97731.39;;;17.46;100.00
50302;BME280;36550;50.472;19.744;2022-09-09T01:15:29;97733.77;;;17.48;100.00
50302;BME280;36550;50.472;19.744;2022-09-09T01:18:17;97732.18;;;17.47;100.00
50302;BME280;36550;50.472;19.744;2022-09-09T01:24:43;97740.20;;;17.42;100.00
50302;BME280;36550;50.472;19.744;2022-09-09T01:27:33;97742.83;;;17.23;100.00
50302;BME280;36550;50.472;19.744;2022-09-09T01:30:18;97746.42;;;17.10;100.00
50302;BME280;36550;50.472;19.744;2022-09-09T01:33:03;97752.59;;;17.03;100.00
50302;BME280;36550;50.472;19.744;2022-09-09T01:36:00;97751.63;;;16.97;100.00
50302;BME280;36550;50.472;19.744;2022-09-09T01:38:47;97758.34;;;16.89;100.00
50302;BME280;36550;50.472;19.744;2022-09-09T01:41:31;97757.34;;;16.80;100.00
50302;BME280;36550;50.472;19.744;2022-09-09T01:44:15;97755.33;;;16.69;100.00
50302;BME280;36550;50.472;19.744;2022-09-09T01:47:02;97758.84;;;16.62;100.00
50302;BME280;36550;50.472;19.744;2022-09-09T01:49:47;97761.56;;;16.54;100.00
50302;BME280;36550;50.472;19.744;2022-09-09T01:52:33;97763.48;;;16.46;100.00
50302;BME280;36550;50.472;19.744;2022-09-09T01:55:24;97764.37;;;16.36;100.00
50302;BME280;36550;50.472;19.744;2022-09-09T02:01:17;97763.96;;;16.19;100.00
50302;BME280;36550;50.472;19.744;2022-09-09T02:10:32;97756.41;;;16.02;100.00
50302;BME280;36550;50.472;19.744;2022-09-09T02:13:21;97765.98;;;15.95;100.00
50302;BME280;36550;50.472;19.744;2022-09-09T02:19:42;117358.96;;;15.96;100.00
50302;BME280;36550;50.472;19.744;2022-09-09T02:22:28;97771.54;;;-145.86;100.00
50302;BME280;36550;50.472;19.744;2022-09-09T02:25:15;97777.94;;;-145.86;100.00
50302;BME280;36550;50.472;19.744;2022-09-09T02:28:04;117358.96;;;-145.86;100.00
50302;BME280;36550;50.472;19.744;2022-09-09T02:30:51;117358.96;;;15.83;100.00
50302;BME280;36550;50.472;19.744;2022-09-09T02:33:43;97775.59;;;15.83;100.00
50302;BME280;36550;50.472;19.744;2022-09-09T02:36:31;97781.98;;;15.77;100.00
50302;BME280;36550;50.472;19.744;2022-09-09T02:39:16;97781.98;;;15.77;100.00
50302;BME280;36550;50.472;19.744;2022-09-09T02:42:01;97789.92;;;15.74;100.00
50302;BME280;36550;50.472;19.744;2022-09-09T02:44:47;97794.94;;;15.71;100.00
50302;BME280;36550;50.472;19.744;2022-09-09T02:47:37;97797.87;;;15.64;100.00
50302;BME280;36550;50.472;19.744;2022-09-09T02:51:23;97803.22;;;15.51;100.00
50302;BME280;36550;50.472;19.744;2022-09-09T02:56:45;97817.27;;;15.47;100.00
50302;BME280;36550;50.472;19.744;2022-09-09T02:59:39;97827.02;;;15.51;100.00
50302;BME280;36550;50.472;19.744;2022-09-09T03:02:23;97831.26;;;15.52;100.00
50302;BME280;36550;50.472;19.744;2022-09-09T03:05:08;97830.48;;;15.52;100.00
50302;BME280;36550;50.472;19.744;2022-09-09T03:07:52;97834.95;;;15.51;100.00
50302;BME280;36550;50.472;19.744;2022-09-09T03:10:37;97843.42;;;15.51;100.00
50302;BME280;36550;50.472;19.744;2022-09-09T03:13:21;97840.54;;;15.50;100.00
50302;BME280;36550;50.472;19.744;2022-09-09T03:16:05;97842.64;;;15.50;100.00
50302;BME280;36550;50.472;19.744;2022-09-09T03:18:50;97842.64;;;15.50;100.00
50302;BME280;36550;50.472;19.744;2022-09-09T03:21:34;97843.71;;;15.47;100.00
50302;BME280;36550;50.472;19.744;2022-09-09T03:24:19;97841.33;;;15.45;100.00
50302;BME280;36550;50.472;19.744;2022-09-09T03:27:03;97826.80;;;15.40;100.00
50302;BME280;36550;50.472;19.744;2022-09-09T03:29:47;97826.80;;;15.40;100.00
50302;BME280;36550;50.472;19.744;2022-09-09T03:32:33;97835.00;;;15.46;100.00
50302;BME280;36550;50.472;19.744;2022-09-09T03:35:17;97831.03;;;15.46;100.00
50302;BME280;36550;50.472;19.744;2022-09-09T03:38:02;97824.67;;;15.42;100.00
50302;BME280;36550;50.472;19.744;2022-09-09T03:40:54;97833.14;;;15.42;100.00
50302;BME280;36550;50.472;19.744;2022-09-09T03:43:41;97836.86;;;15.38;100.00
50302;BME280;36550;50.472;19.744;2022-09-09T03:46:25;97833.45;;;15.35;100.00
50302;BME280;36550;50.472;19.744;2022-09-09T03:49:10;97830.26;;;15.33;100.00
50302;BME280;36550;50.472;19.744;2022-09-09T03:51:56;97830.28;;;15.30;100.00
50302;BME280;36550;50.472;19.744;2022-09-09T03:54:41;97831.86;;;15.29;100.00
50302;BME280;36550;50.472;19.744;2022-09-09T03:57:26;97834.77;;;15.27;100.00
50302;BME280;36550;50.472;19.744;2022-09-09T04:00:10;97840.34;;;15.28;100.00
50302;BME280;36550;50.472;19.744;2022-09-09T04:02:55;97844.03;;;15.30;100.00
50302;BME280;36550;50.472;19.744;2022-09-09T04:05:40;97841.64;;;15.31;100.00
50302;BME280;36550;50.472;19.744;2022-09-09T04:08:26;97845.87;;;15.29;100.00
50302;BME280;36550;50.472;19.744;2022-09-09T04:11:10;97854.08;;;15.30;100.00
50302;BME280;36550;50.472;19.744;2022-09-09T04:13:54;97850.38;;;15.31;100.00
50302;BME280;36550;50.472;19.744;2022-09-09T04:16:39;97851.41;;;15.33;100.00
50302;BME280;36550;50.472;19.744;2022-09-09T04:19:25;97842.43;;;15.34;100.00
50302;BME280;36550;50.472;19.744;2022-09-09T04:22:09;97852.72;;;15.43;100.00
50302;BME280;36550;50.472;19.744;2022-09-09T04:24:53;97852.72;;;15.43;100.00
50302;BME280;36550;50.472;19.744;2022-09-09T04:27:37;97858.28;;;15.44;100.00
50302;BME280;36550;50.472;19.744;2022-09-09T04:30:22;97851.37;;;15.46;100.00
50302;BME280;36550;50.472;19.744;2022-09-09T04:33:07;97854.30;;;15.47;100.00
50302;BME280;36550;50.472;19.744;2022-09-09T04:35:52;97851.91;;;15.50;100.00
50302;BME280;36550;50.472;19.744;2022-09-09T04:38:37;97850.30;;;15.54;100.00
50302;BME280;36550;50.472;19.744;2022-09-09T04:41:22;97848.70;;;15.56;100.00
50302;BME280;36550;50.472;19.744;2022-09-09T04:44:06;97859.49;;;15.75;100.00
50302;BME280;36550;50.472;19.744;2022-09-09T04:46:50;97859.49;;;15.75;100.00
50302;BME280;36550;50.472;19.744;2022-09-09T04:49:34;97849.16;;;15.78;100.00
50302;BME280;36550;50.472;19.744;2022-09-09T04:52:20;97853.63;;;15.86;100.00
50302;BME280;36550;50.472;19.744;2022-09-09T04:55:05;97849.89;;;15.94;100.00
50302;BME280;36550;50.472;19.744;2022-09-09T04:57:50;97848.22;;;16.06;100.00
50302;BME280;36550;50.472;19.744;2022-09-09T05:00:35;97851.30;;;16.24;100.00
50302;BME280;36550;50.472;19.744;2022-09-09T05:03:19;97853.33;;;16.37;100.00
50302;BME280;36550;50.472;19.744;2022-09-09T05:08:53;97852.86;;;16.64;100.00
50302;BME280;36550;50.472;19.744;2022-09-09T05:11:37;97859.10;;;16.84;100.00
50302;BME280;36550;50.472;19.744;2022-09-09T05:14:21;97864.22;;;17.04;100.00
50302;BME280;36550;50.472;19.744;2022-09-09T05:17:06;97863.30;;;17.17;100.00
50302;BME280;36550;50.472;19.744;2022-09-09T05:19:50;97863.46;;;17.25;100.00
50302;BME280;36550;50.472;19.744;2022-09-09T05:22:34;97867.89;;;17.35;100.00
50302;BME280;36550;50.472;19.744;2022-09-09T05:25:20;97864.09;;;17.41;100.00
50302;BME280;36550;50.472;19.744;2022-09-09T05:28:06;97873.79;;;17.54;100.00
50302;BME280;36550;50.472;19.744;2022-09-09T05:30:58;97873.09;;;17.67;100.00
50302;BME280;36550;50.472;19.744;2022-09-09T05:33:51;97878.84;;;17.77;100.00
50302;BME280;36550;50.472;19.744;2022-09-09T05:36:35;97881.39;;;17.84;99.90
50302;BME280;36550;50.472;19.744;2022-09-09T05:39:19;97882.50;;;17.81;98.95
50302;BME280;36550;50.472;19.744;2022-09-09T05:42:04;97881.73;;;17.78;98.23
50302;BME280;36550;50.472;19.744;2022-09-09T05:44:49;97880.01;;;17.65;97.36
50302;BME280;36550;50.472;19.744;2022-09-09T05:47:35;97880.97;;;17.53;97.08
50302;BME280;36550;50.472;19.744;2022-09-09T05:50:20;97884.48;;;17.46;96.74
50302;BME280;36550;50.472;19.744;2022-09-09T05:53:05;97877.86;;;17.46;96.69
50302;BME280;36550;50.472;19.744;2022-09-09T05:55:49;97883.13;;;17.48;96.84
50302;BME280;36550;50.472;19.744;2022-09-09T05:58:34;97888.88;;;17.56;96.81
50302;BME280;36550;50.472;19.744;2022-09-09T06:01:21;97887.00;;;17.59;96.41
50302;BME280;36550;50.472;19.744;2022-09-09T06:04:10;97890.94;;;17.61;96.04
50302;BME280;36550;50.472;19.744;2022-09-09T06:06:54;97896.97;;;17.69;96.05
50302;BME280;36550;50.472;19.744;2022-09-09T06:09:38;97896.65;;;17.74;96.07
50302;BME280;36550;50.472;19.744;2022-09-09T06:12:22;97893.39;;;17.79;95.51
50302;BME280;36550;50.472;19.744;2022-09-09T06:15:07;97893.35;;;17.82;95.21
50302;BME280;36550;50.472;19.744;2022-09-09T06:17:55;97897.30;;;17.87;95.32
50302;BME280;36550;50.472;19.744;2022-09-09T06:20:40;97898.30;;;17.94;95.14
50302;BME280;36550;50.472;19.744;2022-09-09T06:23:25;97901.07;;;18.05;95.11
50302;BME280;36550;50.472;19.744;2022-09-09T06:26:17;97899.36;;;18.14;94.93
50302;BME280;36550;50.472;19.744;2022-09-09T06:29:03;97899.80;;;18.21;94.49
50302;BME280;36550;50.472;19.744;2022-09-09T06:31:48;97902.55;;;18.33;94.52
50302;BME280;36550;50.472;19.744;2022-09-09T06:34:32;97899.66;;;18.48;94.84
50302;BME280;36550;50.472;19.744;2022-09-09T06:37:16;97898.46;;;18.59;94.68
50302;BME280;36550;50.472;19.744;2022-09-09T06:40:00;97899.88;;;18.71;94.33
50302;BME280;36550;50.472;19.744;2022-09-09T06:42:45;97903.14;;;18.84;94.17
50302;BME280;36550;50.472;19.744;2022-09-09T06:45:29;97904.34;;;18.92;93.70
50302;BME280;36550;50.472;19.744;2022-09-09T06:48:13;97900.54;;;18.98;93.31
50302;BME280;36550;50.472;19.744;2022-09-09T06:51:02;97900.20;;;19.02;92.70
50302;BME280;36550;50.472;19.744;2022-09-09T06:53:59;97901.97;;;19.07;92.69
50302;BME280;36550;50.472;19.744;2022-09-09T06:56:45;97901.66;;;19.11;92.51
50302;BME280;36550;50.472;19.744;2022-09-09T06:59:30;97907.81;;;19.09;91.88
50302;BME280;36550;50.472;19.744;2022-09-09T07:02:14;97909.86;;;19.12;91.83
50302;BME280;36550;50.472;19.744;2022-09-09T07:04:58;97904.95;;;19.19;91.73
50302;BME280;36550;50.472;19.744;2022-09-09T07:07:43;97903.74;;;19.28;91.48
50302;BME280;36550;50.472;19.744;2022-09-09T07:10:27;97906.52;;;19.36;91.00
50302;BME280;36550;50.472;19.744;2022-09-09T07:13:12;97910.95;;;19.41;90.86
50302;BME280;36550;50.472;19.744;2022-09-09T07:16:05;97916.44;;;19.47;90.50
50302;BME280;36550;50.472;19.744;2022-09-09T07:18:53;97919.59;;;19.49;90.18
50302;BME280;36550;50.472;19.744;2022-09-09T07:21:40;97923.59;;;19.49;89.70
50302;BME280;36550;50.472;19.744;2022-09-09T07:24:25;97922.28;;;19.47;89.53
50302;BME280;36550;50.472;19.744;2022-09-09T07:27:10;97919.11;;;19.47;89.35
50302;BME280;36550;50.472;19.744;2022-09-09T07:29:54;97920.95;;;19.47;88.83
50302;BME280;36550;50.472;19.744;2022-09-09T07:32:39;97921.77;;;19.47;88.71
50302;BME280;36550;50.472;19.744;2022-09-09T07:35:23;97921.16;;;19.50;88.54
50302;BME280;36550;50.472;19.744;2022-09-09T07:38:07;97914.67;;;19.56;88.45
50302;BME280;36550;50.472;19.744;2022-09-09T07:40:52;97914.42;;;19.69;88.43
50302;BME280;36550;50.472;19.744;2022-09-09T07:43:39;97904.72;;;19.76;87.49
50302;BME280;36550;50.472;19.744;2022-09-09T07:46:27;97904.05;;;19.84;87.28
50302;BME280;36550;50.472;19.744;2022-09-09T07:49:12;97904.63;;;19.95;86.87
50302;BME280;36550;50.472;19.744;2022-09-09T07:51:57;97907.52;;;20.10;86.88
50302;BME280;36550;50.472;19.744;2022-09-09T07:54:42;97910.94;;;20.24;86.94
50302;BME280;36550;50.472;19.744;2022-09-09T07:57:26;97910.51;;;20.31;86.60
50302;BME280;36550;50.472;19.744;2022-09-09T08:00:12;97914.41;;;20.36;85.75
50302;BME280;36550;50.472;19.744;2022-09-09T08:02:58;97912.22;;;20.38;84.99
50302;BME280;36550;50.472;19.744;2022-09-09T08:05:44;97912.52;;;20.36;83.90
50302;BME280;36550;50.472;19.744;2022-09-09T08:08:29;97908.77;;;20.37;83.83
50302;BME280;36550;50.472;19.744;2022-09-09T08:11:14;97908.48;;;20.39;83.24
50302;BME280;36550;50.472;19.744;2022-09-09T08:13:59;97914.84;;;20.41;83.09
50302;BME280;36550;50.472;19.744;2022-09-09T08:16:46;97911.94;;;20.51;82.90
50302;BME280;36550;50.472;19.744;2022-09-09T08:19:31;97913.71;;;20.55;82.29
50302;BME280;36550;50.472;19.744;2022-09-09T08:22:18;97914.42;;;20.58;82.17
50302;BME280;36550;50.472;19.744;2022-09-09T08:25:03;97921.00;;;20.64;82.25
50302;BME280;36550;50.472;19.744;2022-09-09T08:27:49;97925.38;;;20.71;81.72
50302;BME280;36550;50.472;19.744;2022-09-09T08:30:33;97916.00;;;20.73;81.14
50302;BME280;36550;50.472;19.744;2022-09-09T08:33:17;97921.84;;;20.84;80.95
50302;BME280;36550;50.472;19.744;2022-09-09T08:36:01;97923.06;;;20.89;80.05
50302;BME280;36550;50.472;19.744;2022-09-09T08:38:48;97930.47;;;20.92;79.66
50302;BME280;36550;50.472;19.744;2022-09-09T08:42:18;97926.59;;;20.87;78.28
50302;BME280;36550;50.472;19.744;2022-09-09T08:45:14;97932.18;;;20.88;77.79
50302;BME280;36550;50.472;19.744;2022-09-09T08:48:51;97927.31;;;21.02;77.53
50302;BME280;36550;50.472;19.744;2022-09-09T08:51:08;97924.73;;;21.19;77.26
50302;BME280;36550;50.472;19.744;2022-09-09T08:53:54;97930.65;;;21.39;77.09
50302;BME280;36550;50.472;19.744;2022-09-09T08:56:39;97927.63;;;21.63;76.60
50302;BME280;36550;50.472;19.744;2022-09-09T08:59:23;97935.47;;;21.79;75.17
50302;BME280;36550;50.472;19.744;2022-09-09T09:02:23;97926.73;;;22.05;73.67
50302;BME280;36550;50.472;19.744;2022-09-09T09:05:31;97939.55;;;22.34;73.71
50302;BME280;36550;50.472;19.744;2022-09-09T09:08:43;97934.45;;;22.70;73.25
50302;BME280;36550;50.472;19.744;2022-09-09T09:14:41;97931.44;;;23.15;72.98
50302;BME280;36550;50.472;19.744;2022-09-09T09:17:35;97930.94;;;23.13;71.24
50302;BME280;36550;50.472;19.744;2022-09-09T09:20:16;97930.11;;;23.06;69.86
50302;BME280;36550;50.472;19.744;2022-09-09T09:23:03;97928.91;;;22.93;66.93
50302;BME280;36550;50.472;19.744;2022-09-09T09:25:48;97929.16;;;22.85;67.32
50302;BME280;36550;50.472;19.744;2022-09-09T09:28:35;97933.66;;;23.04;67.73
50302;BME280;36550;50.472;19.744;2022-09-09T09:31:20;97934.31;;;23.25;66.87
50302;BME280;36550;50.472;19.744;2022-09-09T09:34:07;97933.91;;;23.53;67.66
50302;BME280;36550;50.472;19.744;2022-09-09T09:36:57;97931.55;;;23.90;67.07
50302;BME280;36550;50.472;19.744;2022-09-09T09:39:45;97933.70;;;24.26;66.57
50302;BME280;36550;50.472;19.744;2022-09-09T09:42:29;97935.97;;;24.51;66.03
50302;BME280;36550;50.472;19.744;2022-09-09T09:45:20;97936.52;;;24.66;64.54
50302;BME280;36550;50.472;19.744;2022-09-09T09:48:15;97937.56;;;24.79;65.71
50302;BME280;36550;50.472;19.744;2022-09-09T09:51:08;97941.14;;;24.77;62.20
50302;BME280;36550;50.472;19.744;2022-09-09T09:53:49;97943.63;;;24.62;60.78
50302;BME280;36550;50.472;19.744;2022-09-09T09:56:36;97940.28;;;24.58;60.98
50302;BME280;36550;50.472;19.744;2022-09-09T10:02:25;97939.84;;;24.90;61.20
50302;BME280;36550;50.472;19.744;2022-09-09T10:05:20;97945.39;;;25.06;60.80
50302;BME280;36550;50.472;19.744;2022-09-09T10:08:14;97942.02;;;25.09;60.20
50302;BME280;36550;50.472;19.744;2022-09-09T10:14:36;97941.31;;;25.27;60.68
50302;BME280;36550;50.472;19.744;2022-09-09T10:31:24;97946.29;;;25.62;53.70
50302;BME280;36550;50.472;19.744;2022-09-09T10:33:57;97939.67;;;25.53;55.58
50302;BME280;36550;50.472;19.744;2022-09-09T10:36:49;97944.72;;;25.48;54.60
50302;BME280;36550;50.472;19.744;2022-09-09T10:39:38;97951.85;;;25.38;53.96
50302;BME280;36550;50.472;19.744;2022-09-09T10:42:29;97938.78;;;25.43;55.22
50302;BME280;36550;50.472;19.744;2022-09-09T10:48:55;97940.25;;;25.83;54.35
50302;BME280;36550;50.472;19.744;2022-09-09T10:51:50;97935.55;;;25.86;53.99
50302;BME280;36550;50.472;19.744;2022-09-09T10:54:43;97945.61;;;25.77;53.49
50302;BME280;36550;50.472;19.744;2022-09-09T10:57:45;97948.77;;;25.61;52.64
50302;BME280;36550;50.472;19.744;2022-09-09T11:03:27;97951.41;;;25.36;51.84
50302;BME280;36550;50.472;19.744;2022-09-09T11:06:19;97952.03;;;25.21;52.50
50302;BME280;36550;50.472;19.744;2022-09-09T11:09:05;97949.42;;;25.12;53.35
50302;BME280;36550;50.472;19.744;2022-09-09T11:11:54;97947.59;;;24.97;52.59
50302;BME280;36550;50.472;19.744;2022-09-09T11:14:42;97954.47;;;24.80;52.98
50302;BME280;36550;50.472;19.744;2022-09-09T11:17:36;97956.53;;;24.68;52.64
50302;BME280;36550;50.472;19.744;2022-09-09T11:20:33;97958.48;;;24.53;52.46
50302;BME280;36550;50.472;19.744;2022-09-09T11:23:22;97955.31;;;24.36;51.95
50302;BME280;36550;50.472;19.744;2022-09-09T11:26:11;97952.47;;;24.26;51.31
50302;BME280;36550;50.472;19.744;2022-09-09T11:32:28;97953.17;;;23.99;52.34
50302;BME280;36550;50.472;19.744;2022-09-09T11:35:38;97959.13;;;23.90;51.87
50302;BME280;36550;50.472;19.744;2022-09-09T11:38:27;97953.09;;;23.87;51.17
50302;BME280;36550;50.472;19.744;2022-09-09T11:41:14;97953.09;;;23.78;50.42
50302;BME280;36550;50.472;19.744;2022-09-09T11:43:59;97954.37;;;23.81;51.01
50302;BME280;36550;50.472;19.744;2022-09-09T11:46:45;97949.81;;;23.96;51.55
50302;BME280;36550;50.472;19.744;2022-09-09T11:49:41;97949.30;;;24.18;52.71
50302;BME280;36550;50.472;19.744;2022-09-09T11:52:37;97955.42;;;24.33;52.19
50302;BME280;36550;50.472;19.744;2022-09-09T11:58:16;97962.58;;;24.35;51.70
50302;BME280;36550;50.472;19.744;2022-09-09T12:01:13;97953.76;;;24.35;51.22
50302;BME280;36550;50.472;19.744;2022-09-09T12:04:10;97958.74;;;24.30;51.13
50302;BME280;36550;50.472;19.744;2022-09-09T12:12:51;97955.45;;;24.39;49.48
50302;BME280;36550;50.472;19.744;2022-09-09T12:15:36;97948.02;;;24.30;49.65
50302;BME280;36550;50.472;19.744;2022-09-09T12:18:35;97944.10;;;24.28;51.05
50302;BME280;36550;50.472;19.744;2022-09-09T12:24:49;97946.46;;;24.29;50.99
50302;BME280;36550;50.472;19.744;2022-09-09T12:27:43;97951.45;;;24.25;50.21
50302;BME280;36550;50.472;19.744;2022-09-09T12:30:41;97955.61;;;24.28;51.27
50302;BME280;36550;50.472;19.744;2022-09-09T12:33:36;97950.52;;;24.35;50.74
50302;BME280;36550;50.472;19.744;2022-09-09T12:36:27;97951.93;;;24.48;51.30
50302;BME280;36550;50.472;19.744;2022-09-09T12:39:22;97950.69;;;24.60;51.64
50302;BME280;36550;50.472;19.744;2022-09-09T12:42:16;97954.41;;;24.68;51.20
50302;BME280;36550;50.472;19.744;2022-09-09T12:45:14;97949.69;;;24.86;51.48
50302;BME280;36550;50.472;19.744;2022-09-09T12:50:50;97953.13;;;25.20;49.77
50302;BME280;36550;50.472;19.744;2022-09-09T12:53:36;97948.92;;;25.25;50.31
50302;BME280;36550;50.472;19.744;2022-09-09T12:56:27;97947.38;;;25.30;50.01
50302;BME280;36550;50.472;19.744;2022-09-09T12:59:26;97944.00;;;25.33;48.98
50302;BME280;36550;50.472;19.744;2022-09-09T13:02:25;97944.24;;;25.34;50.35
50302;BME280;36550;50.472;19.744;2022-09-09T13:05:15;97937.98;;;25.36;49.97
50302;BME280;36550;50.472;19.744;2022-09-09T13:08:03;97939.97;;;25.27;48.70
50302;BME280;36550;50.472;19.744;2022-09-09T13:11:03;97940.02;;;25.12;49.11
50302;BME280;36550;50.472;19.744;2022-09-09T13:13:54;97945.27;;;25.08;49.28
50302;BME280;36550;50.472;19.744;2022-09-09T13:16:40;97943.48;;;25.12;49.44
50302;BME280;36550;50.472;19.744;2022-09-09T13:19:25;97943.16;;;25.20;49.24
50302;BME280;36550;50.472;19.744;2022-09-09T13:22:31;97948.48;;;25.29;49.02
50302;BME280;36550;50.472;19.744;2022-09-09T13:25:26;97938.62;;;25.27;48.59
50302;BME280;36550;50.472;19.744;2022-09-09T13:28:20;97938.23;;;25.16;48.18
50302;BME280;36550;50.472;19.744;2022-09-09T13:31:19;97926.56;;;25.00;48.43
50302;BME280;36550;50.472;19.744;2022-09-09T13:34:28;97930.66;;;24.85;48.62
50302;BME280;36550;50.472;19.744;2022-09-09T13:37:35;97937.50;;;24.67;48.71
50302;BME280;36550;50.472;19.744;2022-09-09T13:40:21;97931.98;;;24.36;48.11
50302;BME280;36550;50.472;19.744;2022-09-09T13:43:16;97927.93;;;24.15;48.84
50302;BME280;36550;50.472;19.744;2022-09-09T13:46:05;97926.18;;;24.05;49.28
50302;BME280;36550;50.472;19.744;2022-09-09T13:52:11;97923.30;;;23.89;49.70
50302;BME280;36550;50.472;19.744;2022-09-09T13:54:57;97918.33;;;23.85;49.91
50302;BME280;36550;50.472;19.744;2022-09-09T13:57:51;97918.47;;;23.88;50.18
50302;BME280;36550;50.472;19.744;2022-09-09T14:00:39;97920.97;;;23.93;50.18
50302;BME280;36550;50.472;19.744;2022-09-09T14:03:24;97922.69;;;23.98;50.04
50302;BME280;36550;50.472;19.744;2022-09-09T14:06:10;97913.23;;;24.07;49.81
50302;BME280;36550;50.472;19.744;2022-09-09T14:08:54;97909.27;;;24.13;49.40
50302;BME280;36550;50.472;19.744;2022-09-09T14:11:39;97910.63;;;24.19;49.80
50302;BME280;36550;50.472;19.744;2022-09-09T14:14:24;97913.27;;;24.28;49.71
50302;BME280;36550;50.472;19.744;2022-09-09T14:17:09;97916.28;;;24.32;49.42
50302;BME280;36550;50.472;19.744;2022-09-09T14:19:53;97919.66;;;24.35;49.77
50302;BME280;36550;50.472;19.744;2022-09-09T14:22:37;97919.05;;;24.45;49.33
50302;BME280;36550;50.472;19.744;2022-09-09T14:25:22;97919.05;;;24.45;49.11
50302;BME280;36550;50.472;19.744;2022-09-09T14:28:12;97915.19;;;24.33;49.92
50302;BME280;36550;50.472;19.744;2022-09-09T14:31:01;97916.51;;;24.27;49.56
50302;BME280;36550;50.472;19.744;2022-09-09T14:33:47;97911.78;;;24.24;50.12
50302;BME280;36550;50.472;19.744;2022-09-09T14:36:32;97915.81;;;24.24;50.15
50302;BME280;36550;50.472;19.744;2022-09-09T14:39:16;97914.09;;;24.19;50.24
50302;BME280;36550;50.472;19.744;2022-09-09T14:42:00;97916.56;;;24.18;50.34
50302;BME280;36550;50.472;19.744;2022-09-09T14:44:45;97911.95;;;24.13;49.75
50302;BME280;36550;50.472;19.744;2022-09-09T14:47:30;97908.75;;;24.05;50.23
50302;BME280;36550;50.472;19.744;2022-09-09T14:50:14;97907.48;;;23.96;50.12
50302;BME280;36550;50.472;19.744;2022-09-09T14:52:58;97899.25;;;23.86;50.39
50302;BME280;36550;50.472;19.744;2022-09-09T14:55:44;97892.34;;;23.76;50.62
50302;BME280;36550;50.472;19.744;2022-09-09T14:58:30;97890.41;;;23.71;50.54
50302;BME280;36550;50.472;19.744;2022-09-09T15:01:17;97886.89;;;23.64;51.05
50302;BME280;36550;50.472;19.744;2022-09-09T15:04:04;97890.45;;;23.62;51.46
50302;BME280;36550;50.472;19.744;2022-09-09T15:06:52;97886.19;;;23.61;51.65
50302;BME280;36550;50.472;19.744;2022-09-09T15:09:37;97884.31;;;23.61;51.71
50302;BME280;36550;50.472;19.744;2022-09-09T15:12:21;97889.88;;;23.62;51.89
50302;BME280;36550;50.472;19.744;2022-09-09T15:15:07;97885.20;;;23.59;52.00
50302;BME280;36550;50.472;19.744;2022-09-09T15:17:52;97885.23;;;23.51;51.88
50302;BME280;36550;50.472;19.744;2022-09-09T15:20:37;97890.44;;;23.47;52.09
50302;BME280;36550;50.472;19.744;2022-09-09T15:23:21;97894.67;;;23.48;52.42
50302;BME280;36550;50.472;19.744;2022-09-09T15:26:06;97896.89;;;23.46;52.39
50302;BME280;36550;50.472;19.744;2022-09-09T15:28:50;97898.65;;;23.42;52.33
50302;BME280;36550;50.472;19.744;2022-09-09T15:31:35;97896.60;;;23.39;52.44
50302;BME280;36550;50.472;19.744;2022-09-09T15:34:19;97898.67;;;23.33;52.37
50302;BME280;36550;50.472;19.744;2022-09-09T15:37:03;97900.06;;;23.24;52.40
50302;BME280;36550;50.472;19.744;2022-09-09T15:39:47;97896.80;;;23.10;52.38
50302;BME280;36550;50.472;19.744;2022-09-09T15:42:32;97906.00;;;22.98;52.52
50302;BME280;36550;50.472;19.744;2022-09-09T15:45:16;97903.98;;;22.86;53.06
50302;BME280;36550;50.472;19.744;2022-09-09T15:48:01;97904.31;;;22.76;53.19
50302;BME280;36550;50.472;19.744;2022-09-09T15:50:46;97903.13;;;22.62;53.27
50302;BME280;36550;50.472;19.744;2022-09-09T15:53:31;97906.54;;;22.47;53.43
50302;BME280;36550;50.472;19.744;2022-09-09T15:56:18;97912.50;;;22.36;53.83
50302;BME280;36550;50.472;19.744;2022-09-09T15:59:02;97907.28;;;22.22;53.95
50302;BME280;36550;50.472;19.744;2022-09-09T16:01:47;97913.06;;;22.06;54.23